Time;durP1;ratioP1;P1;durP2;ratioP2;P2;SDS_P1;SDS_P2;PMS_P1;PMS_P2;Temp;Humidity;BMP_temperature;BMP_pressure;BME280_temperature;BME280_humidity;BME280_pressure;Samples;Min_cycle;Max_cycle;Signal;HPM_P1;HPM_P2
2022/07/10 00:00:02;;;;;;;;;;;24.30;45.70;;;;;;5051456;28;20386;-62
2022/07/10 00:02:27;;;;;;;;;;;24.30;46.30;;;;;;5052003;28;20292;-62
2022/07/10 00:04:53;;;;;;;;;;;24.30;46.00;;;;;;5052979;28;19909;-62
2022/07/10 00:07:18;;;;;;;;;;;24.40;46.10;;;;;;5051888;28;19954;-62
2022/07/10 00:09:43;;;;;;;;;;;24.30;45.90;;;;;;5048032;28;19925;-62
2022/07/10 00:12:09;;;;;;;;;;;24.30;45.80;;;;;;5052541;28;19913;-62
2022/07/10 00:14:34;;;;;;;;;;;24.30;46.00;;;;;;5052870;28;19916;-62
2022/07/10 00:17:00;;;;;;;;;;;24.30;46.30;;;;;;5051267;28;19970;-62
2022/07/10 00:19:25;;;;;;;;;;;24.40;45.90;;;;;;5051520;28;20034;-62
2022/07/10 00:21:51;;;;;;;;;;;24.40;45.90;;;;;;5052341;28;19917;-62
2022/07/10 00:24:16;;;;;;;;;;;24.40;46.30;;;;;;5051374;28;20007;-62
2022/07/10 00:26:42;;;;;;;;;;;24.40;46.10;;;;;;5052190;28;20571;-62
2022/07/10 00:29:08;;;;;;;;;;;24.30;46.00;;;;;;5051513;28;19951;-62
2022/07/10 00:31:34;;;;;;;;;;;24.40;46.10;;;;;;5050576;28;19928;-62
2022/07/10 00:33:59;;;;;;;;;;;24.40;46.20;;;;;;5050319;28;20357;-62
2022/07/10 00:36:24;;;;;;;;;;;24.40;46.20;;;;;;5051591;28;19913;-62
2022/07/10 00:38:50;;;;;;;;;;;24.30;46.10;;;;;;5051697;28;20023;-62
2022/07/10 00:41:15;;;;;;;;;;;24.30;46.10;;;;;;5047976;28;19913;-62
2022/07/10 00:43:53;;;;;;;;;;;24.30;46.10;;;;;;5043711;28;19913;-62
2022/07/10 00:46:22;;;;;;;;;;;24.30;46.20;;;;;;5051257;28;20364;-62
2022/07/10 00:48:48;;;;;;;;;;;24.30;46.10;;;;;;5050630;28;20332;-62
2022/07/10 00:51:14;;;;;;;;;;;24.30;46.10;;;;;;5049339;28;19913;-62
2022/07/10 00:53:39;;;;;;;;;;;24.30;46.20;;;;;;5050070;28;19917;-62
2022/07/10 00:56:05;;;;;;;;;;;24.30;46.20;;;;;;5049859;28;19917;-62
2022/07/10 00:58:30;;;;;;;;;;;24.30;46.10;;;;;;5050231;28;19917;-63
2022/07/10 01:00:56;;;;;;;;;;;24.30;46.20;;;;;;5049792;28;19954;-62
2022/07/10 01:03:21;;;;;;;;;;;24.30;46.20;;;;;;5033439;28;19916;-62
2022/07/10 01:05:47;;;;;;;;;;;24.30;46.10;;;;;;5032575;28;20043;-62
2022/07/10 01:08:12;;;;;;;;;;;24.30;46.10;;;;;;5050655;28;19916;-62
2022/07/10 01:10:38;;;;;;;;;;;24.30;46.20;;;;;;5051103;28;19921;-62
2022/07/10 01:13:03;;;;;;;;;;;24.30;46.10;;;;;;5034391;28;19909;-62
2022/07/10 01:15:29;;;;;;;;;;;24.30;46.10;;;;;;5049500;28;20380;-62
2022/07/10 01:17:55;;;;;;;;;;;24.30;46.10;;;;;;5050018;28;19921;-62
2022/07/10 01:20:20;;;;;;;;;;;24.30;46.20;;;;;;5049223;28;20395;-62
2022/07/10 01:22:46;;;;;;;;;;;24.30;46.30;;;;;;5050306;28;19916;-62
2022/07/10 01:25:11;;;;;;;;;;;24.20;46.30;;;;;;5051381;28;19909;-62
2022/07/10 01:27:37;;;;;;;;;;;24.20;46.40;;;;;;5049928;28;19948;-62
2022/07/10 01:30:02;;;;;;;;;;;24.20;46.30;;;;;;5038844;28;19920;-62
2022/07/10 01:32:36;;;;;;;;;;;24.20;46.40;;;;;;5050525;28;19960;-63
2022/07/10 01:35:01;;;;;;;;;;;24.20;46.40;;;;;;5049854;28;19909;-62
2022/07/10 01:37:26;;;;;;;;;;;24.20;46.50;;;;;;5032149;28;19916;-62
2022/07/10 01:39:52;;;;;;;;;;;24.20;46.40;;;;;;5045881;28;19960;-62
2022/07/10 01:42:17;;;;;;;;;;;24.20;46.30;;;;;;5050250;28;19962;-62
2022/07/10 01:44:43;;;;;;;;;;;24.30;46.30;;;;;;5051276;28;19959;-62
2022/07/10 01:47:09;;;;;;;;;;;24.20;46.20;;;;;;5048083;28;19913;-62
2022/07/10 01:49:34;;;;;;;;;;;24.20;46.10;;;;;;5050829;28;19913;-62
2022/07/10 01:51:59;;;;;;;;;;;24.20;46.20;;;;;;5049374;28;19916;-62
2022/07/10 01:54:25;;;;;;;;;;;24.20;47.00;;;;;;5027942;28;19913;-62
2022/07/10 01:56:50;;;;;;;;;;;24.20;46.40;;;;;;5051498;28;19960;-63
2022/07/10 01:59:16;;;;;;;;;;;24.10;46.40;;;;;;5050837;28;19917;-62
2022/07/10 02:01:41;;;;;;;;;;;24.10;46.40;;;;;;5050063;28;20387;-62
2022/07/10 02:06:51;;;;;;;;;;;24.20;46.50;;;;;;5055547;28;19915;-62
2022/07/10 02:09:16;;;;;;;;;;;24.10;46.50;;;;;;5034327;28;19913;-62
2022/07/10 02:11:42;;;;;;;;;;;24.10;46.40;;;;;;5036189;28;19917;-62
2022/07/10 02:14:08;;;;;;;;;;;24.10;46.50;;;;;;5053776;28;19971;-62
2022/07/10 02:16:34;;;;;;;;;;;24.10;46.40;;;;;;5055228;28;19908;-62
2022/07/10 02:18:59;;;;;;;;;;;24.00;46.40;;;;;;5052994;28;20277;-62
2022/07/10 02:21:25;;;;;;;;;;;24.00;46.50;;;;;;5055315;28;19909;-62
2022/07/10 02:23:50;;;;;;;;;;;24.10;46.60;;;;;;5054263;28;19913;-62
2022/07/10 02:26:16;;;;;;;;;;;24.10;46.60;;;;;;5054441;28;20011;-62
2022/07/10 02:28:41;;;;;;;;;;;24.00;46.50;;;;;;5054545;28;20289;-62
2022/07/10 02:31:07;;;;;;;;;;;24.10;46.50;;;;;;5053865;28;19974;-62
2022/07/10 02:33:32;;;;;;;;;;;24.10;46.50;;;;;;5052399;28;19920;-62
2022/07/10 02:35:57;;;;;;;;;;;24.10;46.50;;;;;;5053265;28;19913;-62
2022/07/10 02:38:23;;;;;;;;;;;24.10;46.50;;;;;;5052640;28;19917;-62
2022/07/10 02:40:48;;;;;;;;;;;24.10;46.50;;;;;;5042156;28;20007;-62
2022/07/10 02:43:14;;;;;;;;;;;24.00;46.50;;;;;;5060674;28;19917;-62
2022/07/10 02:45:39;;;;;;;;;;;24.10;46.60;;;;;;5051559;28;20368;-62
2022/07/10 02:48:05;;;;;;;;;;;24.10;46.60;;;;;;5054451;28;19975;-61
2022/07/10 02:50:30;;;;;;;;;;;24.10;46.60;;;;;;5051211;28;19913;-61
2022/07/10 02:52:56;;;;;;;;;;;24.10;46.60;;;;;;5054618;28;20323;-62
2022/07/10 02:55:21;;;;;;;;;;;24.00;46.50;;;;;;5053836;28;20312;-62
2022/07/10 02:57:47;;;;;;;;;;;24.10;46.50;;;;;;5036404;28;20169;-62
2022/07/10 03:00:12;;;;;;;;;;;24.10;46.40;;;;;;5053200;28;20372;-62
2022/07/10 03:02:38;;;;;;;;;;;24.10;46.40;;;;;;5053481;28;19916;-62
2022/07/10 03:05:03;;;;;;;;;;;24.10;46.40;;;;;;5051605;28;19912;-62
2022/07/10 03:07:29;;;;;;;;;;;24.10;46.40;;;;;;5052838;28;19956;-62
2022/07/10 03:09:54;;;;;;;;;;;24.10;46.50;;;;;;5051445;28;19923;-62
2022/07/10 03:12:20;;;;;;;;;;;24.00;46.50;;;;;;5054198;28;19963;-62
2022/07/10 03:14:45;;;;;;;;;;;24.00;46.50;;;;;;5052531;28;19960;-62
2022/07/10 03:17:11;;;;;;;;;;;24.00;46.50;;;;;;5052561;28;20022;-62
2022/07/10 03:19:36;;;;;;;;;;;24.00;46.40;;;;;;5052015;28;19917;-62
2022/07/10 03:22:02;;;;;;;;;;;24.10;46.50;;;;;;5052254;28;20326;-62
2022/07/10 03:24:27;;;;;;;;;;;24.00;46.40;;;;;;5051264;28;19917;-62
2022/07/10 03:26:53;;;;;;;;;;;24.00;46.40;;;;;;5052372;28;20318;-62
2022/07/10 03:29:18;;;;;;;;;;;24.00;46.50;;;;;;5046855;28;19913;-62
2022/07/10 03:31:43;;;;;;;;;;;24.00;46.50;;;;;;5054053;28;19913;-62
2022/07/10 03:34:10;;;;;;;;;;;24.00;46.40;;;;;;5052049;28;19982;-62
2022/07/10 03:36:35;;;;;;;;;;;24.10;46.50;;;;;;5051762;28;19917;-62
2022/07/10 03:39:00;;;;;;;;;;;24.00;46.40;;;;;;5053499;28;19917;-62
2022/07/10 03:41:26;;;;;;;;;;;24.00;46.40;;;;;;5051801;28;20403;-62
2022/07/10 03:43:51;;;;;;;;;;;24.00;46.50;;;;;;5047210;28;19917;-62
2022/07/10 03:46:17;;;;;;;;;;;24.00;46.50;;;;;;5051953;28;19955;-62
2022/07/10 03:48:42;;;;;;;;;;;24.00;46.50;;;;;;5053227;28;19966;-62
2022/07/10 03:51:08;;;;;;;;;;;24.00;46.60;;;;;;5050922;28;19931;-62
2022/07/10 03:53:33;;;;;;;;;;;24.00;46.50;;;;;;5050100;28;19913;-62
2022/07/10 03:56:00;;;;;;;;;;;24.00;46.50;;;;;;5052821;28;19948;-62
2022/07/10 03:58:25;;;;;;;;;;;24.00;46.60;;;;;;5053402;28;19916;-62
2022/07/10 04:00:51;;;;;;;;;;;24.00;46.60;;;;;;5051819;28;19971;-62
2022/07/10 04:03:16;;;;;;;;;;;24.00;46.60;;;;;;5050639;28;19909;-62
2022/07/10 04:05:42;;;;;;;;;;;24.00;46.60;;;;;;5052792;28;19909;-62
2022/07/10 04:08:08;;;;;;;;;;;24.00;46.60;;;;;;5051870;28;19913;-62
2022/07/10 04:10:34;;;;;;;;;;;24.00;46.60;;;;;;5050949;28;19959;-62
2022/07/10 04:12:59;;;;;;;;;;;24.00;46.60;;;;;;5052776;28;20376;-62
2022/07/10 04:15:25;;;;;;;;;;;24.00;46.60;;;;;;5051362;28;19908;-62
2022/07/10 04:17:50;;;;;;;;;;;24.00;46.60;;;;;;5052012;28;19921;-61
2022/07/10 04:20:16;;;;;;;;;;;24.00;46.50;;;;;;5051602;28;19916;-62
2022/07/10 04:22:41;;;;;;;;;;;24.00;46.50;;;;;;5051499;28;19909;-62
2022/07/10 04:25:07;;;;;;;;;;;24.00;46.50;;;;;;5051091;28;19921;-62
2022/07/10 04:27:32;;;;;;;;;;;24.00;46.40;;;;;;5050861;28;19913;-62
2022/07/10 04:29:58;;;;;;;;;;;23.90;46.40;;;;;;5052379;28;20381;-62
2022/07/10 04:32:23;;;;;;;;;;;23.90;46.50;;;;;;5051760;28;20385;-62
2022/07/10 04:34:49;;;;;;;;;;;23.90;46.60;;;;;;5049698;28;19923;-62
2022/07/10 04:37:14;;;;;;;;;;;23.90;46.60;;;;;;5052267;28;19963;-61
2022/07/10 04:39:40;;;;;;;;;;;23.90;46.50;;;;;;5049276;28;19913;-62
2022/07/10 04:42:06;;;;;;;;;;;23.90;46.40;;;;;;5041355;28;19926;-62
2022/07/10 04:44:31;;;;;;;;;;;24.00;46.40;;;;;;5050613;28;19958;-62
2022/07/10 04:46:57;;;;;;;;;;;23.90;46.30;;;;;;5052002;28;20388;-62
2022/07/10 04:49:22;;;;;;;;;;;23.90;46.30;;;;;;5050468;28;20614;-62
2022/07/10 04:51:47;;;;;;;;;;;23.90;46.20;;;;;;5050526;28;20415;-62
2022/07/10 04:54:13;;;;;;;;;;;23.90;46.20;;;;;;5032649;28;19913;-62
2022/07/10 04:56:38;;;;;;;;;;;23.90;46.20;;;;;;5052387;28;20023;-62
2022/07/10 04:59:04;;;;;;;;;;;23.90;46.20;;;;;;5049930;28;19927;-62
2022/07/10 05:01:29;;;;;;;;;;;23.80;46.10;;;;;;5052386;28;19916;-62
2022/07/10 05:03:55;;;;;;;;;;;23.80;46.20;;;;;;5051220;28;20074;-62
2022/07/10 05:06:20;;;;;;;;;;;23.80;46.60;;;;;;5051804;28;19913;-62
2022/07/10 05:08:46;;;;;;;;;;;23.80;46.10;;;;;;5050279;28;20410;-62
2022/07/10 05:11:11;;;;;;;;;;;23.90;46.10;;;;;;5051974;28;20292;-62
2022/07/10 05:13:37;;;;;;;;;;;23.80;46.20;;;;;;5046422;28;20000;-63
2022/07/10 05:16:03;;;;;;;;;;;23.80;46.10;;;;;;5050585;28;19963;-61
2022/07/10 05:18:28;;;;;;;;;;;23.80;46.00;;;;;;5051271;28;20467;-62
2022/07/10 05:20:54;;;;;;;;;;;23.90;46.00;;;;;;5049597;28;19943;-62
2022/07/10 05:23:19;;;;;;;;;;;23.90;46.00;;;;;;5050479;28;19952;-62
2022/07/10 05:25:44;;;;;;;;;;;23.80;46.60;;;;;;5050701;28;20392;-62
2022/07/10 05:28:12;;;;;;;;;;;23.80;45.80;;;;;;5051818;28;19909;-62
2022/07/10 05:30:38;;;;;;;;;;;23.80;45.80;;;;;;5049151;28;19920;-62
2022/07/10 05:33:03;;;;;;;;;;;23.80;45.90;;;;;;5049239;28;20323;-62
2022/07/10 05:35:29;;;;;;;;;;;23.70;46.00;;;;;;5050397;28;19970;-62
2022/07/10 05:37:54;;;;;;;;;;;23.70;46.10;;;;;;5051365;28;19965;-62
2022/07/10 05:40:20;;;;;;;;;;;23.70;46.00;;;;;;5049404;28;19978;-62
2022/07/10 05:42:45;;;;;;;;;;;23.80;45.90;;;;;;5046014;28;19913;-62
2022/07/10 05:45:11;;;;;;;;;;;23.70;46.00;;;;;;5039840;28;19909;-62
2022/07/10 05:47:36;;;;;;;;;;;23.70;45.80;;;;;;5049788;28;19966;-62
2022/07/10 05:50:02;;;;;;;;;;;23.80;45.80;;;;;;5049748;28;20441;-62
2022/07/10 05:52:27;;;;;;;;;;;23.80;45.80;;;;;;5049012;28;19917;-61
2022/07/10 05:54:53;;;;;;;;;;;23.70;45.80;;;;;;5050264;28;19909;-62
2022/07/10 05:57:18;;;;;;;;;;;23.80;45.80;;;;;;5032827;28;19991;-62
2022/07/10 05:59:44;;;;;;;;;;;23.80;45.60;;;;;;5049476;28;19932;-62
2022/07/10 06:02:09;;;;;;;;;;;23.80;45.60;;;;;;5049317;28;20026;-62
2022/07/10 06:04:35;;;;;;;;;;;23.70;45.60;;;;;;5049389;28;19923;-62
2022/07/10 06:07:00;;;;;;;;;;;23.80;45.50;;;;;;5047415;28;19913;-62
2022/07/10 06:09:26;;;;;;;;;;;23.80;45.60;;;;;;5043912;28;20284;-62
2022/07/10 06:11:51;;;;;;;;;;;23.70;45.50;;;;;;5050211;28;20300;-62
2022/07/10 06:14:16;;;;;;;;;;;23.70;45.60;;;;;;5048783;28;20363;-62
2022/07/10 06:16:42;;;;;;;;;;;23.70;45.40;;;;;;5050685;28;19913;-62
2022/07/10 06:19:07;;;;;;;;;;;23.70;45.30;;;;;;5049553;28;19924;-62
2022/07/10 06:21:33;;;;;;;;;;;23.70;45.30;;;;;;5051372;28;19909;-62
2022/07/10 06:23:58;;;;;;;;;;;23.60;45.50;;;;;;5048993;28;19913;-62
2022/07/10 06:26:24;;;;;;;;;;;23.60;45.60;;;;;;5050798;28;20381;-62
2022/07/10 06:28:50;;;;;;;;;;;23.50;45.60;;;;;;5048812;28;19916;-62
2022/07/10 06:31:15;;;;;;;;;;;23.50;45.70;;;;;;5050101;28;19959;-62
2022/07/10 06:33:41;;;;;;;;;;;23.50;45.70;;;;;;5048480;28;19925;-62
2022/07/10 06:36:07;;;;;;;;;;;23.60;45.60;;;;;;5049287;28;20007;-63
2022/07/10 06:38:32;;;;;;;;;;;23.60;45.30;;;;;;5049078;28;19920;-62
2022/07/10 06:40:58;;;;;;;;;;;23.70;45.10;;;;;;5049599;28;20046;-62
2022/07/10 06:43:23;;;;;;;;;;;23.70;45.10;;;;;;5050274;28;20071;-62
2022/07/10 06:45:49;;;;;;;;;;;23.60;45.10;;;;;;5049544;28;19908;-62
2022/07/10 06:48:14;;;;;;;;;;;23.60;45.10;;;;;;5050567;28;20322;-61
2022/07/10 06:50:39;;;;;;;;;;;23.60;45.00;;;;;;5048833;28;19923;-62
2022/07/10 06:53:05;;;;;;;;;;;23.50;45.10;;;;;;5052351;28;19921;-62
2022/07/10 06:55:31;;;;;;;;;;;23.50;45.20;;;;;;5054666;28;19909;-61
2022/07/10 06:57:57;;;;;;;;;;;23.50;45.40;;;;;;5052182;28;19912;-62
2022/07/10 07:00:22;;;;;;;;;;;23.50;45.30;;;;;;5052308;28;20391;-62
2022/07/10 07:02:48;;;;;;;;;;;23.50;45.30;;;;;;5052456;28;19913;-62
2022/07/10 07:05:13;;;;;;;;;;;23.40;45.30;;;;;;5048281;28;19916;-62
2022/07/10 07:07:39;;;;;;;;;;;23.40;45.20;;;;;;5035384;28;19917;-62
2022/07/10 07:10:05;;;;;;;;;;;23.40;45.30;;;;;;5053749;28;19931;-62
2022/07/10 07:12:30;;;;;;;;;;;23.40;45.20;;;;;;5032899;28;19913;-62
2022/07/10 07:14:56;;;;;;;;;;;23.50;45.00;;;;;;5036558;28;19924;-62
2022/07/10 07:17:22;;;;;;;;;;;23.60;44.80;;;;;;5051323;28;20015;-62
2022/07/10 07:25:16;;;;;;;;;;;23.70;44.20;;;;;;5053402;28;19916;-62
2022/07/10 07:27:41;;;;;;;;;;;23.70;44.40;;;;;;5053958;28;19917;-62
2022/07/10 07:30:08;;;;;;;;;;;23.70;44.20;;;;;;5049524;28;19995;-62
2022/07/10 07:32:33;;;;;;;;;;;23.70;44.20;;;;;;5052027;28;20435;-62
2022/07/10 07:34:59;;;;;;;;;;;23.70;44.00;;;;;;5051593;28;19913;-62
2022/07/10 07:37:37;;;;;;;;;;;23.60;44.20;;;;;;5052169;28;19974;-62
2022/07/10 07:40:04;;;;;;;;;;;23.50;44.40;;;;;;5051655;28;19912;-62
2022/07/10 07:42:29;;;;;;;;;;;23.40;44.40;;;;;;5031134;28;19917;-62
2022/07/10 07:44:55;;;;;;;;;;;23.40;44.60;;;;;;5049274;28;19916;-62
2022/07/10 07:47:20;;;;;;;;;;;23.40;44.50;;;;;;5053407;28;19912;-62
2022/07/10 07:49:46;;;;;;;;;;;23.30;44.50;;;;;;5051554;28;19917;-62
2022/07/10 07:52:11;;;;;;;;;;;23.30;44.70;;;;;;5052751;28;20007;-61
2022/07/10 07:54:37;;;;;;;;;;;23.30;44.50;;;;;;5050223;28;19916;-62
2022/07/10 07:57:02;;;;;;;;;;;23.30;44.50;;;;;;5050772;28;19994;-61
2022/07/10 07:59:28;;;;;;;;;;;23.30;44.60;;;;;;5048903;28;19943;-62
2022/07/10 08:01:53;;;;;;;;;;;23.30;44.50;;;;;;5048238;28;20438;-62
2022/07/10 08:04:19;;;;;;;;;;;23.30;44.60;;;;;;5051944;28;20301;-62
2022/07/10 08:06:44;;;;;;;;;;;23.30;44.70;;;;;;5052113;28;19916;-61
2022/07/10 08:09:09;;;;;;;;;;;23.30;44.60;;;;;;5049795;28;20007;-62
2022/07/10 08:11:35;;;;;;;;;;;23.30;44.70;;;;;;5026788;28;19932;-62
2022/07/10 08:14:00;;;;;;;;;;;23.30;44.40;;;;;;5050262;28;19912;-62
2022/07/10 08:16:26;;;;;;;;;;;23.30;44.50;;;;;;5053129;28;20361;-62
2022/07/10 08:18:51;;;;;;;;;;;23.30;44.50;;;;;;5050717;28;20426;-62
2022/07/10 08:21:17;;;;;;;;;;;23.30;44.50;;;;;;5035859;28;20320;-62
2022/07/10 08:23:42;;;;;;;;;;;23.30;44.60;;;;;;5038790;28;19913;-62
2022/07/10 08:26:07;;;;;;;;;;;23.30;44.50;;;;;;5051341;28;19923;-62
2022/07/10 08:28:33;;;;;;;;;;;23.30;44.50;;;;;;5049982;28;19916;-61
2022/07/10 08:30:58;;;;;;;;;;;23.30;44.50;;;;;;5048047;28;19913;-62
2022/07/10 08:33:24;;;;;;;;;;;23.30;44.40;;;;;;5044003;28;19983;-62
2022/07/10 08:35:49;;;;;;;;;;;23.30;44.50;;;;;;5052351;28;19978;-61
2022/07/10 08:38:15;;;;;;;;;;;23.40;44.50;;;;;;5050925;28;19958;-62
2022/07/10 08:40:40;;;;;;;;;;;23.40;44.30;;;;;;5052507;28;19959;-62
2022/07/10 08:43:06;;;;;;;;;;;23.40;44.60;;;;;;5051147;28;19931;-62
2022/07/10 08:45:33;;;;;;;;;;;23.40;44.30;;;;;;5052144;28;20017;-62
2022/07/10 08:47:59;;;;;;;;;;;23.40;44.80;;;;;;5050829;28;19936;-62
2022/07/10 08:50:25;;;;;;;;;;;23.40;45.60;;;;;;5050267;28;19940;-62
2022/07/10 08:53:06;;;;;;;;;;;23.40;44.90;;;;;;5049842;28;20376;-62
2022/07/10 08:55:32;;;;;;;;;;;23.40;44.70;;;;;;5033844;28;19994;-62
2022/07/10 08:57:58;;;;;;;;;;;23.40;44.70;;;;;;5046580;28;19944;-62
2022/07/10 09:00:24;;;;;;;;;;;23.50;44.50;;;;;;5048939;28;20382;-62
2022/07/10 09:02:49;;;;;;;;;;;23.50;44.60;;;;;;5050226;28;20139;-62
2022/07/10 09:05:14;;;;;;;;;;;23.50;45.00;;;;;;5051400;28;19913;-62
2022/07/10 09:07:41;;;;;;;;;;;23.50;44.80;;;;;;5031504;28;19963;-62
2022/07/10 09:10:08;;;;;;;;;;;23.50;44.50;;;;;;5052092;28;19921;-62
2022/07/10 09:12:50;;;;;;;;;;;23.60;44.50;;;;;;5049937;28;19913;-62
2022/07/10 09:15:16;;;;;;;;;;;23.60;44.50;;;;;;5049769;28;19913;-61
2022/07/10 09:17:54;;;;;;;;;;;23.60;44.50;;;;;;5046912;28;19913;-62
2022/07/10 09:20:24;;;;;;;;;;;23.60;44.50;;;;;;5038457;28;19913;-62
2022/07/10 09:22:49;;;;;;;;;;;23.60;44.70;;;;;;5050692;28;19913;-62
2022/07/10 09:25:14;;;;;;;;;;;23.60;44.40;;;;;;5049930;28;19962;-62
2022/07/10 09:27:55;;;;;;;;;;;23.60;44.70;;;;;;5050643;28;19927;-62
2022/07/10 09:30:33;;;;;;;;;;;23.60;44.40;;;;;;5042193;28;19919;-61
2022/07/10 09:33:25;;;;;;;;;;;23.60;44.40;;;;;;5031799;28;19920;-63
2022/07/10 09:36:09;;;;;;;;;;;23.60;44.60;;;;;;5051498;28;19932;-62
2022/07/10 09:38:43;;;;;;;;;;;23.60;44.80;;;;;;5051989;28;20478;-62
2022/07/10 09:41:12;;;;;;;;;;;23.60;44.80;;;;;;5050321;28;19940;-62
2022/07/10 09:43:44;;;;;;;;;;;23.70;44.70;;;;;;5051366;28;19909;-62
2022/07/10 09:46:10;;;;;;;;;;;23.70;44.80;;;;;;5051689;28;19912;-62
2022/07/10 09:48:35;;;;;;;;;;;23.70;44.90;;;;;;5049625;28;19991;-62
2022/07/10 09:51:01;;;;;;;;;;;23.70;44.60;;;;;;5050105;28;19909;-62
2022/07/10 09:53:26;;;;;;;;;;;23.70;44.70;;;;;;5051552;28;19935;-63
2022/07/10 09:55:51;;;;;;;;;;;23.80;44.70;;;;;;5050306;28;19920;-62
2022/07/10 09:58:17;;;;;;;;;;;23.80;45.10;;;;;;5050157;28;19913;-62
2022/07/10 10:00:45;;;;;;;;;;;23.80;44.50;;;;;;5050518;28;20007;-62
2022/07/10 10:03:11;;;;;;;;;;;23.80;44.80;;;;;;5048389;28;19919;-62
2022/07/10 10:05:44;;;;;;;;;;;23.70;44.50;;;;;;5048508;28;20292;-62
2022/07/10 10:08:16;;;;;;;;;;;23.80;45.30;;;;;;5046519;28;19927;-62
2022/07/10 10:10:45;;;;;;;;;;;23.70;44.40;;;;;;5046702;28;19968;-62
2022/07/10 10:13:11;;;;;;;;;;;23.80;44.50;;;;;;5048897;28;19981;-62
2022/07/10 10:15:36;;;;;;;;;;;23.80;44.50;;;;;;5048565;28;19921;-62
2022/07/10 10:18:02;;;;;;;;;;;23.80;44.70;;;;;;5050253;28;19963;-62
2022/07/10 10:20:37;;;;;;;;;;;23.90;44.50;;;;;;5047304;28;19940;-62
2022/07/10 10:23:03;;;;;;;;;;;23.90;44.50;;;;;;5030462;28;19920;-62
2022/07/10 10:25:29;;;;;;;;;;;23.80;44.40;;;;;;5049823;28;20378;-62
2022/07/10 10:27:54;;;;;;;;;;;23.80;44.40;;;;;;5054157;28;20004;-62
2022/07/10 10:30:19;;;;;;;;;;;23.70;44.10;;;;;;5073925;28;20315;-62
2022/07/10 10:32:45;;;;;;;;;;;23.70;44.20;;;;;;5057380;28;20258;-62
2022/07/10 10:35:10;;;;;;;;;;;23.70;44.50;;;;;;5053302;28;20029;-62
2022/07/10 10:37:36;;;;;;;;;;;23.70;44.60;;;;;;5053293;28;19943;-62
2022/07/10 10:40:03;;;;;;;;;;;23.70;44.80;;;;;;5054760;28;19917;-62
2022/07/10 10:42:35;;;;;;;;;;;23.70;44.80;;;;;;5053524;28;19909;-62
2022/07/10 10:45:19;;;;;;;;;;;23.80;44.60;;;;;;5052542;28;19913;-62
2022/07/10 10:47:58;;;;;;;;;;;23.80;44.90;;;;;;5048792;28;19917;-62
2022/07/10 10:50:37;;;;;;;;;;;23.70;44.90;;;;;;5050136;28;19913;-62
2022/07/10 10:53:03;;;;;;;;;;;23.80;44.40;;;;;;5053433;28;19909;-62
2022/07/10 10:55:28;;;;;;;;;;;23.80;44.00;;;;;;5053272;28;19927;-62
2022/07/10 10:57:54;;;;;;;;;;;23.70;44.40;;;;;;5033302;28;19936;-62
2022/07/10 11:00:30;;;;;;;;;;;23.70;44.80;;;;;;5033311;28;19913;-62
2022/07/10 11:03:11;;;;;;;;;;;23.70;44.80;;;;;;5034174;28;20450;-62
2022/07/10 11:05:38;;;;;;;;;;;23.70;45.00;;;;;;5034424;28;19909;-62
2022/07/10 11:08:04;;;;;;;;;;;23.70;44.80;;;;;;5053893;28;19909;-62
2022/07/10 11:10:42;;;;;;;;;;;23.70;44.70;;;;;;5052220;28;19935;-62
2022/07/10 11:13:08;;;;;;;;;;;23.70;44.80;;;;;;5052806;28;20281;-62
2022/07/10 11:15:38;;;;;;;;;;;23.70;45.00;;;;;;5036333;28;19918;-62
2022/07/10 11:18:07;;;;;;;;;;;23.70;44.70;;;;;;5052669;28;20339;-62
2022/07/10 11:20:34;;;;;;;;;;;23.70;44.70;;;;;;5053940;28;19999;-62
2022/07/10 11:23:02;;;;;;;;;;;23.70;44.50;;;;;;5052867;28;20011;-62
2022/07/10 11:25:35;;;;;;;;;;;23.70;44.50;;;;;;5054230;28;19909;-62
2022/07/10 11:28:08;;;;;;;;;;;23.70;44.60;;;;;;5036696;28;20327;-62
2022/07/10 11:31:06;;;;;;;;;;;23.70;44.80;;;;;;5026305;28;19913;-62
2022/07/10 11:33:38;;;;;;;;;;;23.80;44.60;;;;;;5010729;28;19909;-62
2022/07/10 11:36:04;;;;;;;;;;;23.80;44.40;;;;;;5048826;28;20435;-62
2022/07/10 11:38:31;;;;;;;;;;;23.80;44.40;;;;;;5051645;28;20011;-62
2022/07/10 11:40:56;;;;;;;;;;;23.80;44.20;;;;;;5052369;28;19909;-62
2022/07/10 11:43:23;;;;;;;;;;;23.80;44.40;;;;;;5053807;28;20426;-62
2022/07/10 11:45:49;;;;;;;;;;;23.80;44.40;;;;;;5053833;28;19952;-62
2022/07/10 11:48:18;;;;;;;;;;;23.80;44.40;;;;;;5051809;28;20406;-62
2022/07/10 11:50:43;;;;;;;;;;;23.80;44.50;;;;;;5052095;28;19970;-62
2022/07/10 11:53:09;;;;;;;;;;;23.80;44.40;;;;;;5052404;28;20495;-62
2022/07/10 11:55:37;;;;;;;;;;;23.80;44.40;;;;;;5053516;28;19940;-62
2022/07/10 11:58:18;;;;;;;;;;;23.80;44.20;;;;;;5044344;28;19909;-62
2022/07/10 12:00:43;;;;;;;;;;;23.80;44.20;;;;;;5034517;28;19913;-62
2022/07/10 12:03:19;;;;;;;;;;;23.80;44.00;;;;;;5051873;28;20391;-62
2022/07/10 12:05:45;;;;;;;;;;;23.80;43.90;;;;;;5051280;28;20339;-63
2022/07/10 12:08:11;;;;;;;;;;;23.80;43.90;;;;;;5051245;28;19909;-62
2022/07/10 12:10:36;;;;;;;;;;;23.80;43.80;;;;;;5033198;28;20292;-62
2022/07/10 12:13:05;;;;;;;;;;;23.80;43.90;;;;;;5032040;28;19916;-62
2022/07/10 12:15:34;;;;;;;;;;;23.80;44.10;;;;;;5033182;28;19909;-62
2022/07/10 12:17:59;;;;;;;;;;;23.80;44.00;;;;;;5038143;28;19913;-62
2022/07/10 12:20:25;;;;;;;;;;;23.70;43.80;;;;;;5051472;28;20022;-62
2022/07/10 12:22:53;;;;;;;;;;;23.70;43.80;;;;;;5051571;28;19909;-62
2022/07/10 12:25:19;;;;;;;;;;;23.80;44.20;;;;;;5051796;28;19913;-62
2022/07/10 12:27:44;;;;;;;;;;;23.80;44.20;;;;;;5052877;28;19934;-62
2022/07/10 12:30:10;;;;;;;;;;;23.80;44.10;;;;;;5051482;28;19920;-62
2022/07/10 12:32:35;;;;;;;;;;;23.80;44.00;;;;;;5052557;28;19915;-62
2022/07/10 12:35:01;;;;;;;;;;;23.80;43.90;;;;;;5034491;28;20352;-62
2022/07/10 12:37:26;;;;;;;;;;;23.80;43.80;;;;;;5051414;28;20280;-62
2022/07/10 12:39:56;;;;;;;;;;;23.80;43.80;;;;;;5052407;28;19974;-62
2022/07/10 12:42:25;;;;;;;;;;;23.90;43.90;;;;;;5052609;28;20005;-62
2022/07/10 12:44:50;;;;;;;;;;;23.90;44.60;;;;;;5051365;28;20400;-62
2022/07/10 12:47:16;;;;;;;;;;;23.80;43.80;;;;;;5051861;28;19920;-63
2022/07/10 12:49:49;;;;;;;;;;;23.90;44.00;;;;;;5049301;28;20011;-63
2022/07/10 12:52:25;;;;;;;;;;;23.90;44.00;;;;;;5050040;28;20266;-62
2022/07/10 12:55:10;;;;;;;;;;;23.90;43.80;;;;;;5052096;28;19917;-62
2022/07/10 12:57:52;;;;;;;;;;;23.80;43.90;;;;;;5037045;28;20303;-62
2022/07/10 13:00:38;;;;;;;;;;;23.90;43.80;;;;;;5045410;28;19916;-63
2022/07/10 13:03:04;;;;;;;;;;;23.90;44.00;;;;;;5039071;28;19920;-63
2022/07/10 13:05:31;;;;;;;;;;;23.90;44.10;;;;;;5050463;28;20053;-63
2022/07/10 13:08:11;;;;;;;;;;;23.80;43.70;;;;;;5050633;28;20311;-63
2022/07/10 13:10:36;;;;;;;;;;;23.80;43.80;;;;;;5050636;28;20304;-62
2022/07/10 13:13:05;;;;;;;;;;;23.90;44.00;;;;;;5050401;28;19913;-62
2022/07/10 13:15:30;;;;;;;;;;;23.90;44.00;;;;;;5050693;28;19921;-62
2022/07/10 13:17:56;;;;;;;;;;;23.90;44.00;;;;;;5051437;28;19963;-62
2022/07/10 13:20:22;;;;;;;;;;;23.90;44.00;;;;;;5050503;28;20317;-62
2022/07/10 13:22:47;;;;;;;;;;;23.90;44.50;;;;;;5050255;28;20379;-62
2022/07/10 13:25:13;;;;;;;;;;;23.90;43.80;;;;;;5051787;28;19963;-61
2022/07/10 13:27:39;;;;;;;;;;;23.90;43.90;;;;;;5051483;28;20019;-62
2022/07/10 13:30:05;;;;;;;;;;;23.90;43.90;;;;;;5050622;28;19916;-61
2022/07/10 13:32:30;;;;;;;;;;;23.90;43.80;;;;;;5050307;28;20098;-61
2022/07/10 13:34:56;;;;;;;;;;;23.90;43.30;;;;;;5050165;28;19952;-61
2022/07/10 13:37:21;;;;;;;;;;;24.00;43.40;;;;;;5051498;28;19924;-61
2022/07/10 13:39:46;;;;;;;;;;;24.00;43.50;;;;;;5050102;28;19943;-61
2022/07/10 13:42:12;;;;;;;;;;;24.00;43.50;;;;;;5051839;28;19913;-62
2022/07/10 13:44:37;;;;;;;;;;;23.90;43.30;;;;;;5043057;28;19985;-61
2022/07/10 13:47:03;;;;;;;;;;;24.00;43.50;;;;;;5043504;28;19951;-61
2022/07/10 13:49:28;;;;;;;;;;;23.90;43.60;;;;;;5050565;28;20359;-62
2022/07/10 13:51:54;;;;;;;;;;;23.90;43.80;;;;;;5050104;28;20300;-61
2022/07/10 13:54:19;;;;;;;;;;;23.80;43.60;;;;;;5051451;28;19917;-61
2022/07/10 13:56:45;;;;;;;;;;;23.80;43.60;;;;;;5051373;28;19962;-62
2022/07/10 13:59:10;;;;;;;;;;;23.90;43.70;;;;;;5048054;28;19970;-61
2022/07/10 14:01:36;;;;;;;;;;;23.90;43.60;;;;;;5054981;28;19924;-61
2022/07/10 14:04:01;;;;;;;;;;;23.90;43.50;;;;;;5052114;28;20019;-61
2022/07/10 14:06:26;;;;;;;;;;;23.90;43.60;;;;;;5054032;28;20312;-61
2022/07/10 14:08:52;;;;;;;;;;;23.90;43.50;;;;;;5052105;28;19944;-61
2022/07/10 14:11:17;;;;;;;;;;;24.00;43.50;;;;;;5055301;28;20003;-62
2022/07/10 14:13:43;;;;;;;;;;;24.00;43.50;;;;;;5051229;28;19917;-61
2022/07/10 14:16:08;;;;;;;;;;;24.00;43.50;;;;;;5053356;28;19992;-62
2022/07/10 14:18:34;;;;;;;;;;;24.00;43.50;;;;;;5054104;28;20028;-62
2022/07/10 14:21:03;;;;;;;;;;;24.00;43.40;;;;;;5053962;28;19916;-61